createdAt,value
2018-06-18T00:01:54.457Z,101835.05
2018-06-18T00:04:22.144Z,101850.87
2018-06-18T00:06:50.134Z,101852.22
2018-06-18T00:09:17.881Z,101854.02
2018-06-18T00:11:45.912Z,101856.20
2018-06-18T00:14:14.153Z,101851.38
2018-06-18T00:16:42.039Z,101845.72
2018-06-18T00:19:09.892Z,101854.47
2018-06-18T00:21:37.935Z,101853.66
2018-06-18T00:24:05.789Z,101861.98
2018-06-18T00:26:33.546Z,101862.89
2018-06-18T00:29:01.399Z,101856.75
2018-06-18T00:31:29.224Z,101858.08
2018-06-18T00:33:56.919Z,101862.03
2018-06-18T00:36:24.830Z,101858.55
2018-06-18T00:38:52.563Z,101866.88
2018-06-18T00:41:20.331Z,101860.27
2018-06-18T00:43:48.147Z,101858.08
2018-06-18T00:48:57.424Z,101859.84
2018-06-18T00:51:25.131Z,101862.00
2018-06-18T00:53:52.885Z,101864.23
2018-06-18T00:56:20.717Z,101862.91
2018-06-18T00:58:48.425Z,101860.72
2018-06-18T01:01:16.391Z,101850.61
2018-06-18T01:03:44.126Z,101844.45
2018-06-18T01:06:11.881Z,101850.61
2018-06-18T01:08:39.860Z,101847.55
2018-06-18T01:11:07.640Z,101837.06
2018-06-18T01:13:35.498Z,101827.36
2018-06-18T01:16:03.522Z,101824.34
2018-06-18T01:18:31.334Z,101823.02
2018-06-18T01:20:59.066Z,101823.50
2018-06-18T01:25:37.755Z,101823.50
2018-06-18T01:28:06.107Z,101823.50
2018-06-18T01:30:33.912Z,101819.59
2018-06-18T01:33:01.715Z,101826.59
2018-06-18T01:35:29.850Z,101832.78
2018-06-18T01:37:57.606Z,101829.67
2018-06-18T01:40:25.379Z,101824.88
2018-06-18T01:42:53.163Z,101822.23
2018-06-18T01:45:20.989Z,101826.63
2018-06-18T01:47:48.725Z,101822.26
2018-06-18T01:50:16.518Z,101830.58
2018-06-18T01:52:44.408Z,101829.77
2018-06-18T01:55:12.409Z,101824.48
2018-06-18T01:57:40.475Z,101832.42
2018-06-18T02:00:08.227Z,101831.13
2018-06-18T02:02:36.510Z,101833.33
2018-06-18T02:05:04.362Z,101828.09
2018-06-18T02:07:32.229Z,101834.20
2018-06-18T02:10:00.502Z,101840.80
2018-06-18T02:12:28.218Z,101832.48
2018-06-18T02:14:56.174Z,101835.59
2018-06-18T02:17:24.196Z,101832.48
2018-06-18T02:19:51.960Z,101830.31
2018-06-18T02:22:19.774Z,101825.50
2018-06-18T02:24:47.677Z,101831.25
2018-06-18T02:27:17.056Z,101827.30
2018-06-18T02:29:51.293Z,101822.02
2018-06-18T02:32:24.527Z,101827.73
2018-06-18T02:34:58.077Z,101827.73
2018-06-18T02:37:32.006Z,101833.00
2018-06-18T02:40:05.454Z,101834.73
2018-06-18T02:42:33.247Z,101838.69
2018-06-18T02:45:01.194Z,101840.00
2018-06-18T02:47:29.093Z,101837.84
2018-06-18T02:49:56.923Z,101830.37
2018-06-18T02:52:25.387Z,101835.67
2018-06-18T02:54:54.538Z,101832.59
2018-06-18T02:57:22.466Z,101826.00
2018-06-18T02:59:50.445Z,101828.66
2018-06-18T03:02:18.342Z,101824.73
2018-06-18T03:04:46.271Z,101825.14
2018-06-18T03:07:14.138Z,101823.80
2018-06-18T03:09:42.164Z,101820.28
2018-06-18T03:12:10.043Z,101816.80
2018-06-18T03:14:37.981Z,101819.47
2018-06-18T03:17:05.757Z,101824.73
2018-06-18T03:19:39.204Z,101825.17
2018-06-18T03:22:12.457Z,101819.05
2018-06-18T03:24:45.714Z,101821.69
2018-06-18T03:27:18.924Z,101826.41
2018-06-18T03:29:47.120Z,101825.07
2018-06-18T03:32:17.260Z,101829.08
2018-06-18T03:34:44.986Z,101833.97
2018-06-18T03:37:14.961Z,101841.02
2018-06-18T03:39:42.911Z,101842.88
2018-06-18T03:42:10.680Z,101839.42
2018-06-18T03:44:45.611Z,101832.89
2018-06-18T03:47:22.242Z,101840.38
2018-06-18T03:49:50.453Z,101842.11
2018-06-18T03:52:18.723Z,101844.75
2018-06-18T03:54:46.620Z,101837.70
2018-06-18T03:57:14.594Z,101838.13
2018-06-18T03:59:42.509Z,101845.16
2018-06-18T04:03:28.404Z,101841.27
2018-06-18T04:06:01.512Z,101855.30
2018-06-18T04:08:29.409Z,101843.92
2018-06-18T04:11:02.656Z,101845.27
2018-06-18T04:13:30.570Z,101851.44
2018-06-18T04:15:58.475Z,101847.95
2018-06-18T04:18:26.338Z,101844.47
2018-06-18T04:20:54.139Z,101851.05
2018-06-18T04:23:21.928Z,101856.76
2018-06-18T04:25:50.195Z,101847.59
2018-06-18T04:28:17.900Z,101855.48
2018-06-18T04:30:46.341Z,101853.73
2018-06-18T04:33:16.054Z,101856.30
2018-06-18T04:35:43.828Z,101853.22
2018-06-18T04:38:11.816Z,101846.66
2018-06-18T04:40:39.659Z,101849.81
2018-06-18T04:43:12.874Z,101849.40
2018-06-18T04:45:42.882Z,101856.89
2018-06-18T04:48:16.296Z,101861.72
2018-06-18T04:50:49.785Z,101858.20
2018-06-18T04:53:17.621Z,101852.08
2018-06-18T04:55:45.614Z,101856.03
2018-06-18T04:58:13.432Z,101850.77
2018-06-18T05:00:57.588Z,101845.05
2018-06-18T05:03:25.362Z,101834.92
2018-06-18T05:05:53.294Z,101822.14
2018-06-18T05:09:34.551Z,101818.59
2018-06-18T05:12:02.480Z,101811.52
2018-06-18T05:14:30.154Z,101808.00
2018-06-18T05:16:58.066Z,101815.91
2018-06-18T05:19:25.733Z,101819.45
2018-06-18T05:21:53.562Z,101823.02
2018-06-18T05:24:21.778Z,101822.19
2018-06-18T05:26:51.584Z,101827.92
2018-06-18T05:29:20.950Z,101822.63
2018-06-18T05:31:48.747Z,101836.58
2018-06-18T05:34:19.307Z,101821.91
2018-06-18T05:36:47.469Z,101833.61
2018-06-18T05:39:15.402Z,101838.88
2018-06-18T05:41:43.082Z,101833.66
2018-06-18T05:44:10.799Z,101829.27
2018-06-18T05:46:38.710Z,101827.42
2018-06-18T05:49:06.549Z,101841.38
2018-06-18T05:51:34.407Z,101831.71
2018-06-18T05:54:02.209Z,101837.92
2018-06-18T05:56:30.082Z,101843.22
2018-06-18T05:58:58.171Z,101843.24
2018-06-18T06:01:26.029Z,101847.61
2018-06-18T06:03:53.735Z,101843.22
2018-06-18T06:06:21.547Z,101842.31
2018-06-18T06:08:49.486Z,101842.59
2018-06-18T06:11:17.403Z,101848.47
2018-06-18T06:13:45.179Z,101858.77
2018-06-18T06:16:12.974Z,101861.08
2018-06-18T06:18:40.751Z,101862.83
2018-06-18T06:21:10.648Z,101862.80
2018-06-18T06:23:38.468Z,101857.89
2018-06-18T06:26:06.354Z,101852.53
2018-06-18T06:28:34.135Z,101854.20
2018-06-18T06:31:01.942Z,101860.25
2018-06-18T06:33:29.764Z,101858.41
2018-06-18T06:35:58.756Z,101856.20
2018-06-18T06:38:26.840Z,101852.77
2018-06-18T06:40:54.617Z,101853.27
2018-06-18T06:43:22.503Z,101851.98
2018-06-18T06:45:50.832Z,101852.80
2018-06-18T06:48:18.650Z,101857.67
2018-06-18T06:50:46.488Z,101850.16
2018-06-18T06:53:14.270Z,101848.88
2018-06-18T06:55:42.071Z,101843.72
2018-06-18T06:58:09.850Z,101839.90
2018-06-18T07:00:37.694Z,101833.30
2018-06-18T07:03:05.716Z,101833.77
2018-06-18T07:05:34.511Z,101835.50
2018-06-18T07:08:02.385Z,101833.77
2018-06-18T07:10:30.216Z,101840.77
2018-06-18T07:12:57.996Z,101835.95
2018-06-18T07:15:25.831Z,101847.81
2018-06-18T07:17:53.584Z,101838.11
2018-06-18T07:20:21.386Z,101843.41
2018-06-18T07:22:49.151Z,101837.31
2018-06-18T07:25:17.017Z,101841.70
2018-06-18T07:27:44.929Z,101844.32
2018-06-18T07:30:12.838Z,101836.00
2018-06-18T07:32:40.553Z,101838.63
2018-06-18T07:35:08.316Z,101839.90
2018-06-18T07:37:36.183Z,101837.12
2018-06-18T07:40:03.970Z,101833.98
2018-06-18T07:42:31.725Z,101842.70
2018-06-18T07:44:59.456Z,101846.50
2018-06-18T07:47:27.237Z,101841.61
2018-06-18T07:49:55.094Z,101833.20
2018-06-18T07:52:22.897Z,101846.80
2018-06-18T07:54:50.705Z,101834.00
2018-06-18T07:57:18.479Z,101849.30
2018-06-18T07:59:46.326Z,101845.22
2018-06-18T08:02:14.080Z,101831.05
2018-06-18T08:04:41.818Z,101830.08
2018-06-18T08:07:09.979Z,101817.73
2018-06-18T08:09:38.017Z,101819.50
2018-06-18T08:12:05.777Z,101829.23
2018-06-18T08:14:33.646Z,101831.34
2018-06-18T08:17:01.435Z,101823.37
2018-06-18T08:19:29.353Z,101833.36
2018-06-18T08:21:57.710Z,101842.91
2018-06-18T08:24:25.548Z,101825.63
2018-06-18T08:26:53.510Z,101827.80
2018-06-18T08:29:21.351Z,101815.95
2018-06-18T08:31:49.183Z,101819.59
2018-06-18T08:34:17.228Z,101823.59
2018-06-18T08:36:45.078Z,101842.56
2018-06-18T08:39:12.942Z,101834.30
2018-06-18T08:41:40.831Z,101845.45
2018-06-18T08:44:08.524Z,101827.44
2018-06-18T08:46:36.245Z,101842.43
2018-06-18T08:49:05.448Z,101834.02
2018-06-18T08:51:38.773Z,101835.12
2018-06-18T08:54:12.027Z,101835.41
2018-06-18T08:56:45.418Z,101840.49
2018-06-18T08:59:18.763Z,101838.67
2018-06-18T09:01:46.855Z,101849.07
2018-06-18T09:04:17.456Z,101842.24
2018-06-18T09:06:46.166Z,101846.08
2018-06-18T09:09:14.045Z,101846.41
2018-06-18T09:11:42.009Z,101844.69
2018-06-18T09:14:09.745Z,101831.82
2018-06-18T09:16:37.585Z,101841.98
2018-06-18T09:19:05.608Z,101850.37
2018-06-18T09:21:33.362Z,101843.06
2018-06-18T09:24:01.269Z,101839.26
2018-06-18T09:26:28.964Z,101836.66
2018-06-18T09:28:56.765Z,101827.78
2018-06-18T09:31:24.663Z,101826.77
2018-06-18T09:33:52.459Z,101831.98
2018-06-18T09:36:20.316Z,101837.37
2018-06-18T09:38:48.075Z,101835.27
2018-06-18T09:41:15.739Z,101834.92
2018-06-18T09:43:43.717Z,101848.16
2018-06-18T09:46:11.469Z,101848.59
2018-06-18T09:48:44.847Z,101845.11
2018-06-18T09:51:18.066Z,101860.07
2018-06-18T09:53:51.516Z,101851.84
2018-06-18T09:56:24.845Z,101860.23
2018-06-18T09:58:58.138Z,101860.64
2018-06-18T10:01:30.053Z,101859.31
2018-06-18T10:03:58.310Z,101855.45
2018-06-18T10:06:26.705Z,101853.38
2018-06-18T10:08:54.417Z,101851.20
2018-06-18T10:11:22.360Z,101852.88
2018-06-18T10:13:50.195Z,101864.66
2018-06-18T10:16:18.201Z,101857.02
2018-06-18T10:18:46.192Z,101855.38
2018-06-18T10:21:14.018Z,101852.92
2018-06-18T10:23:41.868Z,101856.30
2018-06-18T10:26:09.779Z,101859.02
2018-06-18T10:28:37.655Z,101863.11
2018-06-18T10:31:05.654Z,101864.18
2018-06-18T10:33:38.963Z,101866.38
2018-06-18T10:36:12.150Z,101869.97
2018-06-18T10:38:45.893Z,101875.00
2018-06-18T10:41:19.428Z,101869.19
2018-06-18T10:43:47.231Z,101871.13
2018-06-18T10:46:15.170Z,101877.37
2018-06-18T10:48:42.882Z,101878.73
2018-06-18T10:51:12.488Z,101887.91
2018-06-18T10:53:41.111Z,101887.69
2018-06-18T10:56:09.078Z,101887.09
2018-06-18T10:58:36.906Z,101895.59
2018-06-18T11:01:06.864Z,101894.73
2018-06-18T11:03:34.821Z,101883.72
2018-06-18T11:06:08.499Z,101887.17
2018-06-18T11:08:36.434Z,101884.45
2018-06-18T11:11:04.373Z,101890.11
2018-06-18T11:13:32.275Z,101884.83
2018-06-18T11:16:00.148Z,101881.34
2018-06-18T11:18:33.354Z,101876.56
2018-06-18T11:21:06.814Z,101873.04
2018-06-18T11:23:40.070Z,101871.16
2018-06-18T11:27:14.718Z,101869.22
2018-06-18T11:29:42.786Z,101862.88
2018-06-18T11:32:10.580Z,101865.86
2018-06-18T11:34:38.494Z,101861.27
2018-06-18T11:37:06.280Z,101862.29
2018-06-18T11:39:35.187Z,101860.64
2018-06-18T11:42:03.127Z,101863.02
2018-06-18T11:44:30.884Z,101851.94
2018-06-18T11:46:58.741Z,101844.27
2018-06-18T11:49:26.660Z,101851.48
2018-06-18T11:51:54.670Z,101855.74
2018-06-18T11:54:22.432Z,101843.45
2018-06-18T11:56:50.255Z,101836.47
2018-06-18T11:59:23.696Z,101839.63
2018-06-18T12:02:58.439Z,101838.34
2018-06-18T12:05:31.718Z,101849.03
2018-06-18T12:10:09.598Z,101832.58
2018-06-18T12:12:37.851Z,101826.45
2018-06-18T12:15:06.087Z,101834.81
2018-06-18T12:17:33.856Z,101824.24
2018-06-18T12:20:01.711Z,101816.69
2018-06-18T12:22:29.757Z,101820.72
2018-06-18T12:24:57.907Z,101826.70
2018-06-18T12:27:28.407Z,101832.44
2018-06-18T12:29:56.130Z,101832.91
2018-06-18T12:32:24.025Z,101835.84
2018-06-18T12:34:51.861Z,101838.16
2018-06-18T12:37:19.820Z,101843.12
2018-06-18T12:42:15.765Z,101847.99
2018-06-18T12:44:49.407Z,101844.17
2018-06-18T12:47:22.673Z,101834.98
2018-06-18T12:49:55.927Z,101841.52
2018-06-18T12:52:29.021Z,101827.69
2018-06-18T12:55:02.379Z,101834.48
2018-06-18T12:57:30.340Z,101836.25
2018-06-18T12:59:58.234Z,101829.24
2018-06-18T13:02:45.654Z,101825.67
2018-06-18T13:05:13.511Z,101834.16
2018-06-18T13:07:41.273Z,101828.47
2018-06-18T13:10:09.107Z,101827.84
2018-06-18T13:12:36.891Z,101832.14
2018-06-18T13:15:04.687Z,101832.91
2018-06-18T13:17:32.638Z,101840.31
2018-06-18T13:20:00.506Z,101826.42
2018-06-18T13:22:28.460Z,101834.90
2018-06-18T13:24:56.485Z,101831.01
2018-06-18T13:27:29.672Z,101839.91
2018-06-18T13:29:57.491Z,101838.70
2018-06-18T13:32:25.439Z,101832.97
2018-06-18T13:34:53.253Z,101831.66
2018-06-18T13:37:26.559Z,101830.80
2018-06-18T13:39:59.880Z,101835.72
2018-06-18T13:42:33.023Z,101827.76
2018-06-18T13:45:06.334Z,101819.94
2018-06-18T13:47:39.606Z,101834.39
2018-06-18T13:50:07.362Z,101829.59
2018-06-18T13:52:35.289Z,101834.02
2018-06-18T13:55:03.182Z,101824.81
2018-06-18T13:57:30.997Z,101830.09
2018-06-18T13:59:58.846Z,101829.17
2018-06-18T14:02:26.796Z,101826.09
2018-06-18T14:04:56.379Z,101834.02
2018-06-18T14:07:24.394Z,101830.53
2018-06-18T14:09:52.583Z,101829.25
2018-06-18T14:12:20.404Z,101827.35
2018-06-18T14:14:48.271Z,101822.30
2018-06-18T14:17:16.189Z,101821.66
2018-06-18T14:19:49.646Z,101808.23
2018-06-18T14:22:17.427Z,101800.60
2018-06-18T14:24:45.151Z,101808.13
2018-06-18T14:27:13.048Z,101806.42
2018-06-18T14:29:46.303Z,101802.83
2018-06-18T14:32:19.691Z,101797.45
2018-06-18T14:34:52.946Z,101800.80
2018-06-18T14:37:26.216Z,101801.16
2018-06-18T14:39:59.412Z,101805.08
2018-06-18T14:42:27.159Z,101784.71
2018-06-18T14:44:55.031Z,101799.42
2018-06-18T14:47:22.793Z,101795.87
2018-06-18T14:49:50.671Z,101803.69
2018-06-18T14:52:18.522Z,101799.02
2018-06-18T14:54:46.273Z,101791.20
2018-06-18T14:57:14.219Z,101787.31
2018-06-18T14:59:59.495Z,101793.91
2018-06-18T15:02:27.461Z,101798.83
2018-06-18T15:04:55.424Z,101790.02
2018-06-18T15:07:23.843Z,101795.75
2018-06-18T15:09:51.594Z,101794.02
2018-06-18T15:12:21.200Z,101793.55
2018-06-18T15:14:54.748Z,101787.75
2018-06-18T15:17:22.539Z,101782.87
2018-06-18T15:19:50.843Z,101783.38
2018-06-18T15:22:18.599Z,101785.11
2018-06-18T15:25:07.749Z,101779.83
2018-06-18T15:27:35.443Z,101782.61
2018-06-18T15:30:03.370Z,101778.75
2018-06-18T15:32:31.164Z,101776.11
2018-06-18T15:34:58.931Z,101783.63
2018-06-18T15:37:26.766Z,101776.18
2018-06-18T15:39:54.533Z,101785.53
2018-06-18T15:42:22.451Z,101779.03
2018-06-18T15:44:50.197Z,101777.38
2018-06-18T15:47:18.023Z,101784.48
2018-06-18T15:49:45.825Z,101791.12
2018-06-18T15:52:13.588Z,101781.47
2018-06-18T15:54:41.298Z,101785.44
2018-06-18T15:57:09.233Z,101781.03
2018-06-18T15:59:36.897Z,101777.03
2018-06-18T16:02:04.577Z,101775.28
2018-06-18T16:04:32.357Z,101777.07
2018-06-18T16:07:00.184Z,101777.14
2018-06-18T16:09:27.910Z,101776.80
2018-06-18T16:11:55.667Z,101776.36
2018-06-18T16:14:23.604Z,101782.59
2018-06-18T16:16:51.542Z,101796.77
2018-06-18T16:19:19.337Z,101783.50
2018-06-18T16:21:47.012Z,101775.04
2018-06-18T16:24:14.814Z,101779.44
2018-06-18T16:26:42.654Z,101778.50
2018-06-18T16:29:10.534Z,101773.22
2018-06-18T16:31:38.499Z,101778.19
2018-06-18T16:34:06.333Z,101770.70
2018-06-18T16:36:34.321Z,101774.70
2018-06-18T16:39:02.357Z,101766.84
2018-06-18T16:41:30.275Z,101778.77
2018-06-18T16:43:58.387Z,101774.83
2018-06-18T16:46:26.278Z,101775.75
2018-06-18T16:48:54.389Z,101778.39
2018-06-18T16:51:22.342Z,101778.77
2018-06-18T16:53:50.221Z,101783.91
2018-06-18T16:56:18.125Z,101783.91
2018-06-18T16:58:46.056Z,101777.68
2018-06-18T17:01:13.966Z,101770.23
2018-06-18T17:03:41.983Z,101782.11
2018-06-18T17:06:09.872Z,101777.48
2018-06-18T17:08:37.846Z,101783.16
2018-06-18T17:11:05.604Z,101773.99
2018-06-18T17:13:33.358Z,101770.58
2018-06-18T17:16:01.092Z,101772.84
2018-06-18T17:18:28.840Z,101775.52
2018-06-18T17:20:56.776Z,101775.20
2018-06-18T17:23:24.588Z,101774.80
2018-06-18T17:25:52.550Z,101771.34
2018-06-18T17:28:20.455Z,101773.58
2018-06-18T17:30:48.374Z,101779.41
2018-06-18T17:33:16.186Z,101778.05
2018-06-18T17:35:43.969Z,101783.77
2018-06-18T17:38:12.005Z,101789.55
2018-06-18T17:40:39.823Z,101783.80
2018-06-18T17:43:07.708Z,101778.05
2018-06-18T17:45:35.397Z,101773.68
2018-06-18T17:48:03.652Z,101782.01
2018-06-18T17:50:31.477Z,101784.23
2018-06-18T17:52:59.271Z,101770.60
2018-06-18T17:55:27.127Z,101774.12
2018-06-18T17:57:54.959Z,101782.92
2018-06-18T18:00:22.809Z,101786.44
2018-06-18T18:02:50.698Z,101786.53
2018-06-18T18:05:18.592Z,101788.33
2018-06-18T18:07:46.341Z,101788.84
2018-06-18T18:10:14.128Z,101790.63
2018-06-18T18:12:41.912Z,101788.52
2018-06-18T18:15:09.749Z,101793.42
2018-06-18T18:17:37.540Z,101795.59
2018-06-18T18:20:05.452Z,101799.39
2018-06-18T18:22:33.224Z,101803.25
2018-06-18T18:25:01.332Z,101808.12
2018-06-18T18:27:29.230Z,101809.41
2018-06-18T18:29:56.990Z,101811.17
2018-06-18T18:32:24.830Z,101805.89
2018-06-18T18:34:52.635Z,101798.89
2018-06-18T18:37:20.498Z,101798.89
2018-06-18T18:39:48.314Z,101796.25
2018-06-18T18:42:16.109Z,101798.48
2018-06-18T18:44:43.960Z,101800.71
2018-06-18T18:47:11.712Z,101798.95
2018-06-18T18:49:39.508Z,101798.14
2018-06-18T18:52:07.401Z,101798.58
2018-06-18T18:56:01.228Z,101796.44
2018-06-18T18:59:35.434Z,101787.64
2018-06-18T19:02:03.253Z,101796.47
2018-06-18T19:04:36.864Z,101797.39
2018-06-18T19:07:05.069Z,101796.50
2018-06-18T19:09:37.101Z,101800.05
2018-06-18T19:12:05.027Z,101801.00
2018-06-18T19:14:32.791Z,101801.44
2018-06-18T19:17:00.615Z,101798.39
2018-06-18T19:19:32.909Z,101805.87
2018-06-18T19:22:00.676Z,101812.91
2018-06-18T19:24:28.401Z,101807.19
2018-06-18T19:26:56.112Z,101805.48
2018-06-18T19:29:23.842Z,101810.36
2018-06-18T19:31:51.714Z,101810.83
2018-06-18T19:34:22.750Z,101812.14
2018-06-18T19:36:52.477Z,101786.13
2018-06-18T19:39:21.859Z,101806.05
2018-06-18T19:41:49.696Z,101805.64
2018-06-18T19:44:17.619Z,101794.23
2018-06-18T19:47:52.379Z,101800.86
2018-06-18T19:50:20.513Z,101795.20
2018-06-18T19:52:48.357Z,101793.52
2018-06-18T19:55:21.165Z,101802.34
2018-06-18T19:57:49.080Z,101801.05
2018-06-18T20:00:16.905Z,101805.85
2018-06-18T20:02:45.023Z,101800.64
2018-06-18T20:05:13.766Z,101807.70
2018-06-18T20:07:54.751Z,101813.00
2018-06-18T20:10:23.886Z,101813.89
2018-06-18T20:12:51.880Z,101813.48
2018-06-18T20:15:20.018Z,101810.87
2018-06-18T20:17:47.828Z,101820.33
2018-06-18T20:20:16.059Z,101813.70
2018-06-18T20:22:44.428Z,101817.22
2018-06-18T20:25:12.326Z,101822.06
2018-06-18T20:27:40.163Z,101823.47
2018-06-18T20:30:11.468Z,101827.84
2018-06-18T20:32:39.597Z,101820.83
2018-06-18T20:35:28.787Z,101821.74
2018-06-18T20:37:56.664Z,101832.30
2018-06-18T20:40:24.477Z,101833.17
2018-06-18T20:42:52.250Z,101832.73
2018-06-18T20:45:20.115Z,101838.00
2018-06-18T20:47:47.871Z,101842.88
2018-06-18T20:50:15.671Z,101843.31
2018-06-18T20:52:43.663Z,101841.08
2018-06-18T20:55:11.517Z,101841.52
2018-06-18T20:57:39.240Z,101839.77
2018-06-18T21:00:07.294Z,101844.63
2018-06-18T21:02:35.262Z,101847.27
2018-06-18T21:05:03.090Z,101849.47
2018-06-18T21:07:31.090Z,101853.42
2018-06-18T21:09:58.922Z,101852.98
2018-06-18T21:12:26.724Z,101853.45
2018-06-18T21:14:54.795Z,101860.89
2018-06-18T21:17:22.699Z,101857.41
2018-06-18T21:19:50.462Z,101862.69
2018-06-18T21:22:18.763Z,101864.44
2018-06-18T21:24:46.514Z,101865.77
2018-06-18T21:27:14.313Z,101870.59
2018-06-18T21:29:42.282Z,101873.65
2018-06-18T21:32:10.125Z,101869.28
2018-06-18T21:34:38.015Z,101863.13
2018-06-18T21:37:05.764Z,101868.88
2018-06-18T21:39:33.620Z,101872.36
2018-06-18T21:42:01.452Z,101864.91
2018-06-18T21:44:33.595Z,101862.28
2018-06-18T21:47:01.443Z,101856.15
2018-06-18T21:49:29.180Z,101853.52
2018-06-18T21:51:57.166Z,101858.78
2018-06-18T21:54:25.013Z,101857.03
2018-06-18T21:56:52.888Z,101865.85
2018-06-18T21:59:20.806Z,101859.70
2018-06-18T22:01:48.566Z,101864.06
2018-06-18T22:04:16.613Z,101871.97
2018-06-18T22:06:44.614Z,101865.85
2018-06-18T22:09:15.128Z,101873.30
2018-06-18T22:11:44.917Z,101871.54
2018-06-18T22:14:12.803Z,101876.41
2018-06-18T22:16:40.794Z,101878.57
2018-06-18T22:19:08.834Z,101871.56
2018-06-18T22:21:36.949Z,101868.05
2018-06-18T22:24:05.047Z,101874.20
2018-06-18T22:26:32.799Z,101874.64
2018-06-18T22:29:00.851Z,101868.52
2018-06-18T22:31:28.723Z,101867.64
2018-06-18T22:33:56.407Z,101861.48
2018-06-18T22:36:24.259Z,101868.02
2018-06-18T22:38:52.013Z,101869.25
2018-06-18T22:41:19.833Z,101859.58
2018-06-18T22:43:47.589Z,101862.28
2018-06-18T22:46:15.878Z,101860.98
2018-06-18T22:48:44.080Z,101853.09
2018-06-18T22:51:12.011Z,101852.66
2018-06-18T22:53:39.962Z,101850.49
2018-06-18T22:56:08.067Z,101852.25
2018-06-18T22:58:35.912Z,101848.35
2018-06-18T23:01:03.805Z,101854.47
2018-06-18T23:03:31.638Z,101854.06
2018-06-18T23:05:59.347Z,101852.77
2018-06-18T23:08:27.036Z,101850.16
2018-06-18T23:10:54.732Z,101851.92
2018-06-18T23:13:27.368Z,101848.44
2018-06-18T23:15:55.074Z,101855.47
2018-06-18T23:18:23.303Z,101857.25
2018-06-18T23:20:51.165Z,101855.53
2018-06-18T23:23:18.862Z,101852.45
2018-06-18T23:25:46.690Z,101850.72
2018-06-18T23:28:14.757Z,101857.78
2018-06-18T23:30:42.578Z,101864.37
2018-06-18T23:33:10.304Z,101854.27
2018-06-18T23:35:38.161Z,101855.58
2018-06-18T23:38:06.036Z,101848.98
2018-06-18T23:40:34.064Z,101844.63
2018-06-18T23:43:01.965Z,101847.28
2018-06-18T23:45:29.777Z,101847.26
2018-06-18T23:47:57.624Z,101856.05
2018-06-18T23:50:25.470Z,101852.59
2018-06-18T23:52:53.293Z,101860.06
2018-06-18T23:55:21.068Z,101860.50
2018-06-18T23:57:48.954Z,101861.41
